Time;durP1;ratioP1;P1;durP2;ratioP2;P2;SDS_P1;SDS_P2;PMS_P1;PMS_P2;Temp;Humidity;BMP_temperature;BMP_pressure;BME280_temperature;BME280_humidity;BME280_pressure;Samples;Min_cycle;Max_cycle;Signal;HPM_P1;HPM_P2
2023/05/27 00:00:04;;;;;;;17.95;5.85;;;;;;;8.86;72.67;102835.84;4973405;28;20102;-76
2023/05/27 00:02:30;;;;;;;13.15;4.57;;;;;;;8.84;72.71;102833.19;4977904;28;20023;-77
2023/05/27 00:04:55;;;;;;;12.18;4.80;;;;;;;8.80;72.64;102839.19;4959219;28;20486;-78
2023/05/27 00:07:21;;;;;;;19.30;5.07;;;;;;;8.73;72.82;102834.63;4976335;28;20046;-76
2023/05/27 00:09:49;;;;;;;12.07;4.20;;;;;;;8.62;73.29;102832.59;4975595;28;20045;-76
2023/05/27 00:12:15;;;;;;;15.65;4.68;;;;;;;8.61;73.01;102828.22;4974183;28;20045;-76
2023/05/27 00:14:40;;;;;;;16.65;5.15;;;;;;;8.61;73.50;102835.19;4991121;28;20035;-77
2023/05/27 00:17:06;;;;;;;19.17;5.10;;;;;;;8.56;74.13;102836.75;4958646;28;20039;-76
2023/05/27 00:19:31;;;;;;;19.83;5.07;;;;;;;8.53;73.65;102824.50;4989009;28;20031;-76
2023/05/27 00:21:57;;;;;;;18.75;6.03;;;;;;;8.52;74.20;102832.28;4978132;28;20412;-76
2023/05/27 00:24:23;;;;;;;14.80;4.85;;;;;;;8.47;73.76;102826.94;4970928;28;20221;-76
2023/05/27 00:26:48;;;;;;;15.48;4.60;;;;;;;8.49;74.36;102826.16;4992112;28;20031;-77
2023/05/27 00:29:16;;;;;;;15.25;4.80;;;;;;;8.44;73.64;102829.44;4965624;28;20056;-76
2023/05/27 00:31:41;;;;;;;14.90;4.65;;;;;;;8.38;74.29;102819.69;4993349;28;20109;-77
2023/05/27 00:34:07;;;;;;;17.17;4.38;;;;;;;8.38;74.68;102826.66;4975033;28;20047;-76
2023/05/27 00:36:32;;;;;;;13.88;5.10;;;;;;;8.37;74.44;102825.75;4962645;28;20030;-76
2023/05/27 00:38:58;;;;;;;18.17;4.95;;;;;;;8.34;74.64;102828.28;4962351;28;20038;-76
2023/05/27 00:41:24;;;;;;;16.45;4.75;;;;;;;8.31;75.14;102815.13;4978885;28;20038;-76
2023/05/27 00:43:50;;;;;;;17.85;4.85;;;;;;;8.31;74.93;102823.84;4978850;28;20394;-76
2023/05/27 00:46:15;;;;;;;18.42;5.65;;;;;;;8.27;75.09;102816.75;4962686;28;20026;-77
2023/05/27 00:48:42;;;;;;;13.98;4.78;;;;;;;8.24;75.22;102816.66;4977869;28;20053;-76
2023/05/27 00:51:07;;;;;;;13.73;4.80;;;;;;;8.24;75.56;102821.00;4977569;28;20062;-76
2023/05/27 00:53:42;;;;;;;13.77;4.53;;;;;;;8.25;74.97;102821.06;4963502;28;20050;-77
2023/05/27 00:56:09;;;;;;;18.83;7.35;;;;;;;8.24;75.56;102824.50;4975173;28;20041;-77
2023/05/27 00:58:37;;;;;;;19.50;8.50;;;;;;;8.21;75.42;102813.97;4978099;28;20038;-76
2023/05/27 01:01:04;;;;;;;25.55;9.73;;;;;;;8.18;75.32;102824.31;4978465;28;20030;-76
2023/05/27 01:03:32;;;;;;;22.65;10.00;;;;;;;8.14;75.74;102812.00;4978949;28;20035;-76
2023/05/27 01:06:30;;;;;;;20.95;10.35;;;;;;;8.21;75.00;102813.09;4977548;28;20142;-78
2023/05/27 01:08:58;;;;;;;21.48;9.57;;;;;;;8.13;75.99;102816.34;4977712;28;20046;-76
2023/05/27 01:11:30;;;;;;;17.98;9.65;;;;;;;8.10;75.73;102815.38;4984001;28;20031;-75
2023/05/27 01:14:00;;;;;;;18.55;8.85;;;;;;;8.07;76.72;102815.28;4977075;28;20081;-77
2023/05/27 01:16:28;;;;;;;20.30;7.32;;;;;;;7.98;77.08;102818.50;4980366;28;20090;-76
2023/05/27 01:18:59;;;;;;;18.83;6.40;;;;;;;7.97;76.97;102824.53;4982504;28;20033;-76
2023/05/27 01:21:29;;;;;;;20.23;6.63;;;;;;;7.92;77.16;102811.34;4977808;28;20034;-76
2023/05/27 01:24:02;;;;;;;17.50;6.28;;;;;;;7.89;76.78;102811.25;4985464;28;20030;-76
2023/05/27 01:26:28;;;;;;;19.20;6.10;;;;;;;7.89;77.07;102806.03;4975601;28;20054;-76
2023/05/27 01:28:53;;;;;;;20.20;5.53;;;;;;;7.84;77.43;102804.13;4976235;28;20062;-76
2023/05/27 01:31:34;;;;;;;18.38;5.72;;;;;;;7.85;77.45;102803.31;4959919;28;20042;-77
2023/05/27 01:34:03;;;;;;;17.83;5.28;;;;;;;7.82;78.11;102803.22;4988896;28;20410;-77
2023/05/27 01:36:33;;;;;;;20.55;5.70;;;;;;;7.71;78.74;102801.13;4991877;28;20466;-77
2023/05/27 01:39:00;;;;;;;22.58;6.22;;;;;;;7.75;78.37;102812.56;4986504;28;20470;-75
2023/05/27 01:41:26;;;;;;;14.68;5.68;;;;;;;7.73;77.88;102803.78;4962957;28;20038;-75
2023/05/27 01:43:53;;;;;;;14.77;5.22;;;;;;;7.68;78.47;102802.78;4956837;28;20116;-76
2023/05/27 01:46:18;;;;;;;20.58;5.72;;;;;;;7.66;78.18;102802.72;4959876;28;20427;-76
2023/05/27 01:48:44;;;;;;;21.02;5.78;;;;;;;7.62;78.54;102801.72;4956758;28;20061;-77
2023/05/27 01:51:09;;;;;;;18.38;6.18;;;;;;;7.57;78.69;102798.09;4948523;28;20037;-76
2023/05/27 01:53:35;;;;;;;17.33;5.88;;;;;;;7.56;78.93;102790.22;4967010;28;20128;-77
2023/05/27 01:56:01;;;;;;;15.18;5.65;;;;;;;7.53;79.11;102800.53;4972710;28;20549;-76
2023/05/27 01:58:27;;;;;;;17.88;5.43;;;;;;;7.51;79.52;102803.09;4952132;28;20478;-76
2023/05/27 02:00:52;;;;;;;17.48;5.32;;;;;;;7.47;79.39;102806.47;4973891;28;20042;-76
2023/05/27 02:03:17;;;;;;;20.63;6.03;;;;;;;7.44;79.38;102802.03;4966794;28;20038;-77
2023/05/27 02:05:44;;;;;;;20.52;6.18;;;;;;;7.43;79.72;102794.16;4990739;28;20062;-78
2023/05/27 02:08:10;;;;;;;20.05;5.93;;;;;;;7.40;80.14;102796.66;4955040;28;20043;-76
2023/05/27 02:10:35;;;;;;;17.63;5.60;;;;;;;7.37;80.35;102789.63;4960407;28;20034;-76
2023/05/27 02:13:00;;;;;;;17.67;5.88;;;;;;;7.35;80.37;102791.28;4957251;28;20034;-76
2023/05/27 02:15:26;;;;;;;18.08;6.13;;;;;;;7.27;81.38;102788.44;4988224;28;20486;-78
2023/05/27 02:17:55;;;;;;;20.95;5.97;;;;;;;7.27;80.85;102788.44;4970959;28;20483;-76
2023/05/27 02:20:21;;;;;;;20.55;5.88;;;;;;;7.20;81.07;102788.19;4981443;28;20022;-76
2023/05/27 02:22:47;;;;;;;18.60;5.93;;;;;;;7.20;81.46;102791.66;4965658;28;20038;-77
2023/05/27 02:25:12;;;;;;;17.02;5.95;;;;;;;7.19;81.56;102789.88;4973039;28;20045;-78
2023/05/27 02:27:37;;;;;;;15.23;5.72;;;;;;;7.14;81.87;102795.78;4975517;28;20038;-76
2023/05/27 02:30:03;;;;;;;15.18;5.90;;;;;;;7.14;81.60;102794.09;4972028;28;20027;-77
2023/05/27 02:32:30;;;;;;;23.40;7.15;;;;;;;7.13;81.38;102802.72;4971935;28;20134;-76
2023/05/27 02:34:56;;;;;;;19.45;5.95;;;;;;;7.10;82.22;102785.25;4969660;28;20264;-76
2023/05/27 02:37:21;;;;;;;15.95;6.50;;;;;;;7.08;82.37;102796.47;4952960;28;20031;-76
2023/05/27 02:39:47;;;;;;;19.00;6.60;;;;;;;7.08;82.03;102796.47;4955933;28;20340;-76
2023/05/27 02:42:12;;;;;;;17.75;7.07;;;;;;;7.03;81.74;102796.31;4971823;28;20125;-77
2023/05/27 02:44:38;;;;;;;19.17;6.63;;;;;;;7.03;82.46;102803.25;4957596;28;20026;-76
2023/05/27 02:47:03;;;;;;;18.65;6.50;;;;;;;6.99;82.25;102793.53;4963077;28;20471;-76
2023/05/27 02:49:29;;;;;;;18.17;6.47;;;;;;;7.02;81.98;102801.47;4954039;28;20057;-76
2023/05/27 02:51:54;;;;;;;19.95;6.75;;;;;;;6.99;82.45;102802.25;4990859;28;20070;-77
2023/05/27 02:54:19;;;;;;;17.55;6.40;;;;;;;6.97;82.72;102803.03;4950820;28;20438;-76
2023/05/27 02:56:47;;;;;;;19.42;6.53;;;;;;;6.92;82.98;102795.97;4974733;28;20089;-76
2023/05/27 02:59:13;;;;;;;18.38;6.35;;;;;;;6.90;83.50;102802.81;4972073;28;20084;-77
2023/05/27 03:01:38;;;;;;;18.02;6.57;;;;;;;6.88;83.61;102800.97;4941283;28;20022;-76
2023/05/27 03:04:04;;;;;;;22.33;6.78;;;;;;;6.87;83.64;102812.25;4957494;28;20098;-77
2023/05/27 03:06:29;;;;;;;18.58;6.75;;;;;;;6.85;83.79;102807.00;4959351;28;20046;-76
2023/05/27 03:08:55;;;;;;;16.38;6.80;;;;;;;6.78;83.69;102801.50;4972406;28;20110;-77
2023/05/27 03:11:21;;;;;;;19.65;6.20;;;;;;;6.77;83.64;102800.63;4956811;28;20026;-75
2023/05/27 03:13:46;;;;;;;15.38;6.53;;;;;;;6.78;83.24;102811.91;4976021;28;20498;-77
2023/05/27 03:16:12;;;;;;;14.75;6.22;;;;;;;6.78;83.36;102811.91;4974550;28;20046;-77
2023/05/27 03:18:38;;;;;;;18.30;6.93;;;;;;;6.68;84.15;102809.00;4971847;28;20495;-77
2023/05/27 03:21:04;;;;;;;20.67;6.40;;;;;;;6.66;83.52;102813.25;4966020;28;20125;-75
2023/05/27 03:23:30;;;;;;;23.60;7.20;;;;;;;6.64;84.14;102801.00;4990231;28;20022;-76
2023/05/27 03:25:55;;;;;;;13.88;6.53;;;;;;;6.63;83.68;102807.94;4974754;28;20084;-76
2023/05/27 03:28:21;;;;;;;19.25;7.30;;;;;;;6.61;84.22;102809.59;4975530;28;20423;-76
2023/05/27 03:30:46;;;;;;;17.02;6.50;;;;;;;6.57;83.72;102806.00;4954583;28;20046;-77
2023/05/27 03:33:12;;;;;;;20.60;6.85;;;;;;;6.56;85.07;102801.59;4956740;28;20035;-77
2023/05/27 03:35:37;;;;;;;21.88;7.20;;;;;;;6.54;84.30;102795.47;4953047;28;20197;-76
2023/05/27 03:38:03;;;;;;;17.23;6.50;;;;;;;6.56;84.45;102795.50;4955309;28;20037;-77
2023/05/27 03:40:29;;;;;;;17.13;7.03;;;;;;;6.50;84.59;102798.78;4943650;28;20026;-78
2023/05/27 03:42:54;;;;;;;20.05;6.65;;;;;;;6.53;84.34;102791.06;4974375;28;20372;-77
2023/05/27 03:45:20;;;;;;;20.67;7.13;;;;;;;6.49;85.64;102781.38;4955850;28;20034;-76
2023/05/27 03:47:45;;;;;;;20.45;7.32;;;;;;;6.49;85.56;102785.72;4956863;28;20030;-77
2023/05/27 03:50:10;;;;;;;20.15;7.38;;;;;;;6.51;84.98;102776.25;4951384;28;20031;-77
2023/05/27 03:52:36;;;;;;;22.35;7.68;;;;;;;6.52;85.40;102772.78;4960265;28;20494;-76
2023/05/27 03:55:01;;;;;;;20.35;7.00;;;;;;;6.54;84.56;102784.16;4952215;28;20041;-77
2023/05/27 03:57:27;;;;;;;17.88;6.93;;;;;;;6.53;86.09;102783.25;4990665;28;20099;-76
2023/05/27 03:59:52;;;;;;;19.77;7.30;;;;;;;6.51;85.41;102777.13;4971017;28;20173;-77
2023/05/27 04:02:18;;;;;;;18.63;7.13;;;;;;;6.54;85.90;102772.03;4975539;28;20140;-77
2023/05/27 04:04:43;;;;;;;20.27;7.13;;;;;;;6.60;85.86;102763.53;4944467;28;20031;-77
2023/05/27 04:07:08;;;;;;;20.63;7.47;;;;;;;6.68;86.31;102780.34;4972352;28;20131;-77
2023/05/27 04:09:35;;;;;;;20.15;6.60;;;;;;;6.78;86.21;102771.13;4944821;28;20022;-77
2023/05/27 04:12:00;;;;;;;20.52;7.68;;;;;;;6.77;85.75;102782.38;4980293;28;20093;-77
2023/05/27 04:14:26;;;;;;;18.70;7.38;;;;;;;6.85;85.76;102783.53;4971600;28;20034;-76
2023/05/27 04:16:52;;;;;;;20.15;7.65;;;;;;;6.87;85.80;102781.88;4958870;28;20162;-77
2023/05/27 04:19:17;;;;;;;19.33;8.50;;;;;;;7.02;85.15;102780.63;4949605;28;20383;-77
2023/05/27 04:21:43;;;;;;;19.83;7.80;;;;;;;6.99;84.68;102770.97;4987109;28;20470;-77
2023/05/27 04:24:08;;;;;;;22.98;7.53;;;;;;;7.09;84.85;102772.16;4959231;28;20092;-77
2023/05/27 04:26:33;;;;;;;20.05;7.72;;;;;;;7.18;85.00;102767.25;4959494;28;20030;-78
2023/05/27 04:28:59;;;;;;;17.92;6.57;;;;;;;7.24;85.28;102770.06;4958586;28;20046;-77
2023/05/27 04:31:28;;;;;;;17.67;7.07;;;;;;;7.34;84.63;102770.38;4975408;28;20027;-77
2023/05/27 04:33:54;;;;;;;18.48;7.55;;;;;;;7.38;84.16;102761.81;4950037;28;20041;-78
2023/05/27 04:36:24;;;;;;;17.48;7.50;;;;;;;7.46;84.43;102757.72;4987428;28;20045;-76
2023/05/27 04:38:51;;;;;;;24.77;7.47;;;;;;;7.58;83.54;102747.66;4973256;28;20027;-77
2023/05/27 04:41:16;;;;;;;19.48;7.85;;;;;;;7.65;83.72;102753.09;4975129;28;20593;-78
2023/05/27 04:43:42;;;;;;;20.98;7.28;;;;;;;7.67;83.74;102756.63;4972647;28;20125;-77
2023/05/27 04:46:08;;;;;;;20.20;7.18;;;;;;;7.75;83.42;102755.16;4955616;28;20039;-76
2023/05/27 04:48:35;;;;;;;24.95;7.85;;;;;;;7.85;83.41;102748.50;4971909;28;20114;-77
2023/05/27 04:51:01;;;;;;;21.20;7.43;;;;;;;7.89;82.97;102759.06;4982358;28;20413;-79
2023/05/27 04:53:26;;;;;;;19.52;7.63;;;;;;;7.97;82.41;102741.91;4959905;28;20045;-76
2023/05/27 04:55:51;;;;;;;20.67;7.65;;;;;;;7.97;82.18;102746.22;4975531;28;20065;-78
2023/05/27 04:58:17;;;;;;;17.45;6.68;;;;;;;8.13;83.03;102745.84;4964670;28;20026;-78
2023/05/27 05:00:53;;;;;;;19.70;7.47;;;;;;;8.19;82.92;102739.00;4959896;28;20064;-77
2023/05/27 05:03:26;;;;;;;21.73;7.30;;;;;;;8.30;80.80;102750.66;4970971;28;20046;-78
2023/05/27 05:05:52;;;;;;;17.30;6.85;;;;;;;8.33;80.60;102743.81;4991796;28;20513;-77
2023/05/27 05:08:19;;;;;;;16.00;7.30;;;;;;;8.33;80.14;102746.41;4972698;28;20030;-78
2023/05/27 05:10:46;;;;;;;23.40;7.25;;;;;;;8.45;80.46;102737.19;4990740;28;20113;-79
2023/05/27 05:13:12;;;;;;;18.05;7.25;;;;;;;8.48;80.82;102745.97;4986408;28;20096;-77
2023/05/27 05:15:37;;;;;;;18.80;7.22;;;;;;;8.66;80.52;102740.38;4974514;28;20398;-77
2023/05/27 05:18:03;;;;;;;22.75;7.22;;;;;;;8.78;79.83;102738.94;4961721;28;20029;-79
2023/05/27 05:20:28;;;;;;;16.60;6.50;;;;;;;8.80;79.35;102738.09;4957859;28;20031;-78
2023/05/27 05:22:54;;;;;;;20.17;6.68;;;;;;;8.83;78.71;102742.53;4978323;28;20022;-76
2023/05/27 05:25:19;;;;;;;21.08;7.13;;;;;;;8.92;78.97;102753.25;4944509;28;20487;-77
2023/05/27 05:27:45;;;;;;;17.75;6.30;;;;;;;9.04;78.86;102738.69;4970371;28;20043;-76
2023/05/27 05:30:12;;;;;;;14.98;6.95;;;;;;;9.19;79.17;102745.22;4954338;28;20073;-77
2023/05/27 05:32:40;;;;;;;17.50;7.13;;;;;;;9.27;77.33;102745.38;4983644;28;20041;-77
2023/05/27 05:35:06;;;;;;;18.25;7.10;;;;;;;9.35;77.24;102736.00;4976314;28;20143;-77
2023/05/27 05:37:32;;;;;;;17.30;7.28;;;;;;;9.42;77.05;102738.75;4957671;28;20031;-77
2023/05/27 05:39:57;;;;;;;18.20;6.88;;;;;;;9.50;76.08;102730.22;4976471;28;20091;-80
2023/05/27 05:42:24;;;;;;;18.75;6.70;;;;;;;9.66;76.06;102734.06;4976933;28;20033;-77
2023/05/27 05:44:51;;;;;;;21.77;7.35;;;;;;;9.86;75.89;102731.00;4977440;28;20034;-76
2023/05/27 05:47:17;;;;;;;19.35;7.22;;;;;;;9.93;74.92;102730.28;4989611;28;20375;-77
2023/05/27 05:49:42;;;;;;;21.65;7.38;;;;;;;10.22;76.83;102727.38;4976682;28;20049;-76
2023/05/27 05:52:08;;;;;;;19.63;6.68;;;;;;;10.50;74.21;102738.44;4958246;28;20356;-82
2023/05/27 05:54:33;;;;;;;17.88;7.10;;;;;;;10.56;74.77;102731.56;4987533;28;20027;-79
2023/05/27 05:57:00;;;;;;;18.65;6.85;;;;;;;10.61;72.44;102722.91;4988021;28;20068;-84
2023/05/27 05:59:45;;;;;;;20.33;6.45;;;;;;;10.72;73.38;102731.88;4983245;28;20022;-88
2023/05/27 06:02:10;;;;;;;21.55;7.45;;;;;;;10.77;73.14;102724.06;4990248;28;20018;-83
2023/05/27 06:04:36;;;;;;;24.70;6.85;;;;;;;10.78;72.19;102729.34;4977056;28;20034;-87
2023/05/27 06:07:01;;;;;;;19.90;6.90;;;;;;;10.96;71.48;102731.41;4961356;28;20125;-85
2023/05/27 06:09:29;;;;;;;18.42;7.93;;;;;;;11.09;72.65;102722.88;4959651;28;20398;-87
2023/05/27 06:11:54;;;;;;;18.73;6.82;;;;;;;11.09;71.43;102725.50;4976434;28;20027;-84
2023/05/27 06:14:22;;;;;;;16.88;7.57;;;;;;;11.16;70.44;102713.38;4982413;28;20033;-83
2023/05/27 06:17:06;;;;;;;20.85;6.97;;;;;;;11.44;70.76;102719.91;4962532;28;20038;-82
2023/05/27 06:19:32;;;;;;;17.83;7.30;;;;;;;11.70;70.64;102723.78;4966291;28;20039;-86
2023/05/27 06:21:58;;;;;;;17.25;6.82;;;;;;;11.74;68.36;102725.59;4959599;28;20042;-89
2023/05/27 06:24:23;;;;;;;20.77;6.88;;;;;;;11.92;70.86;102717.03;4977115;28;20035;-83
2023/05/27 06:26:49;;;;;;;16.77;7.18;;;;;;;11.93;68.05;102713.56;4993207;28;20089;-87
2023/05/27 06:29:15;;;;;;;20.27;6.25;;;;;;;12.08;68.10;102710.25;4977072;28;20080;-85
2023/05/27 06:31:41;;;;;;;16.05;6.75;;;;;;;12.19;67.68;102707.78;4973065;28;20125;-83
2023/05/27 06:34:06;;;;;;;18.55;6.68;;;;;;;12.22;68.60;102706.06;4966770;28;20112;-82
2023/05/27 06:36:32;;;;;;;18.70;7.55;;;;;;;12.47;68.17;102701.94;4946044;28;20131;-84
2023/05/27 06:38:58;;;;;;;19.40;6.80;;;;;;;12.71;66.77;102710.06;4976210;28;20476;-83
2023/05/27 06:41:23;;;;;;;20.38;6.88;;;;;;;12.79;66.57;102704.00;4941615;28;20050;-82
2023/05/27 06:43:49;;;;;;;15.18;7.35;;;;;;;12.85;66.27;102704.94;4973640;28;20448;-81
2023/05/27 06:46:15;;;;;;;23.73;8.32;;;;;;;12.91;68.20;102705.84;4973126;28;20046;-86
2023/05/27 06:48:43;;;;;;;15.20;6.53;;;;;;;12.73;65.96;102701.31;4976694;28;20378;-84
2023/05/27 06:51:09;;;;;;;16.52;6.35;;;;;;;12.80;66.84;102689.97;4975999;28;20022;-84
2023/05/27 06:53:34;;;;;;;19.80;6.90;;;;;;;12.87;65.28;102687.41;4952714;28;20483;-86
2023/05/27 06:56:06;;;;;;;17.02;7.18;;;;;;;13.24;68.13;102682.41;4941560;28;20336;-84
2023/05/27 06:58:31;;;;;;;21.42;7.05;;;;;;;13.27;64.78;102690.31;4991289;28;20045;-85
2023/05/27 07:00:57;;;;;;;19.10;6.38;;;;;;;13.38;65.86;102693.94;4976984;28;20030;-83
2023/05/27 07:03:22;;;;;;;22.13;7.15;;;;;;;13.39;65.38;102694.81;4976576;28;20367;-86
2023/05/27 07:05:48;;;;;;;19.75;6.93;;;;;;;13.28;65.57;102698.22;4957010;28;20046;-84
2023/05/27 07:08:15;;;;;;;20.73;7.50;;;;;;;13.17;64.48;102689.38;4943194;28;20062;-87
2023/05/27 07:10:41;;;;;;;18.65;6.43;;;;;;;13.09;65.54;102686.69;4973814;28;20084;-87
2023/05/27 07:13:08;;;;;;;17.00;6.85;;;;;;;13.04;67.51;102688.41;4960187;28;20030;-84
2023/05/27 07:15:33;;;;;;;21.45;6.97;;;;;;;13.33;66.11;102691.25;4984743;28;20045;-83
2023/05/27 07:17:59;;;;;;;21.30;6.55;;;;;;;13.40;64.94;102678.16;4961304;28;20031;-87
2023/05/27 07:20:24;;;;;;;14.25;6.38;;;;;;;13.31;63.39;102684.22;4939858;28;20038;-83
2023/05/27 07:22:50;;;;;;;18.30;7.53;;;;;;;13.30;64.91;102680.72;4981916;28;20026;-87
2023/05/27 07:25:15;;;;;;;21.25;8.00;;;;;;;13.47;64.59;102690.47;4972482;28;20043;-85
2023/05/27 07:27:40;;;;;;;19.85;7.45;;;;;;;13.57;66.56;102684.38;4975724;28;20038;-84
2023/05/27 07:30:08;;;;;;;22.65;7.18;;;;;;;13.68;64.55;102681.81;4990811;28;20053;-84
2023/05/27 07:32:33;;;;;;;23.17;7.03;;;;;;;13.75;62.94;102682.72;4959584;28;20033;-86
2023/05/27 07:34:59;;;;;;;18.85;7.05;;;;;;;13.84;62.89;102675.72;4983162;28;20367;-84
2023/05/27 07:37:26;;;;;;;16.88;7.38;;;;;;;13.89;65.74;102677.50;4956194;28;20567;-85
2023/05/27 07:39:51;;;;;;;18.13;7.00;;;;;;;14.06;64.23;102678.44;4983627;28;20033;-82
2023/05/27 07:42:17;;;;;;;19.33;7.82;;;;;;;14.00;62.55;102675.78;4980577;28;20026;-81
2023/05/27 07:44:42;;;;;;;45.33;8.80;;;;;;;14.11;64.25;102679.34;4984523;28;20054;-85
2023/05/27 07:47:09;;;;;;;19.70;7.85;;;;;;;14.08;66.07;102676.69;4972117;28;20331;-82
2023/05/27 07:49:35;;;;;;;19.70;7.30;;;;;;;14.14;63.92;102658.25;4984714;28;20030;-83
2023/05/27 07:52:01;;;;;;;17.20;6.53;;;;;;;14.17;61.95;102657.38;4969499;28;20399;-82
2023/05/27 07:54:28;;;;;;;18.77;7.20;;;;;;;14.31;64.10;102666.22;4945930;28;20035;-84
2023/05/27 07:56:53;;;;;;;23.23;7.07;;;;;;;14.25;61.74;102657.41;4980443;28;20060;-84
2023/05/27 07:59:20;;;;;;;20.15;8.48;;;;;;;14.30;63.72;102650.38;4957156;28;20054;-82
2023/05/27 08:02:00;;;;;;;19.05;7.93;;;;;;;14.27;63.54;102655.66;4976795;28;21602;-81
2023/05/27 08:04:26;;;;;;;;;;;;;;;14.45;63.85;102660.97;4973929;28;20450;-88
2023/05/27 08:06:51;;;;;;;18.58;7.10;;;;;;;14.32;61.43;102656.53;4987892;28;19996;-82
2023/05/27 08:09:20;;;;;;;21.75;7.28;;;;;;;14.32;61.75;102656.53;4974591;28;20042;-83
2023/05/27 08:11:54;;;;;;;20.48;7.43;;;;;;;14.45;63.86;102654.78;4969822;28;20426;-82
2023/05/27 08:14:20;;;;;;;15.30;7.30;;;;;;;14.37;62.91;102649.50;4972337;28;20115;-90
2023/05/27 08:16:53;;;;;;;26.23;7.97;;;;;;;14.41;62.63;102646.00;4986791;28;20038;-86
2023/05/27 08:19:19;;;;;;;20.05;7.20;;;;;;;14.44;63.02;102632.81;4969547;28;20416;-86
2023/05/27 08:21:44;;;;;;;16.80;7.65;;;;;;;14.60;62.21;102638.09;4989873;28;20061;-86
2023/05/27 08:24:10;;;;;;;21.08;7.45;;;;;;;14.60;60.81;102636.34;4971527;28;20085;-84
2023/05/27 08:26:35;;;;;;;19.42;7.80;;;;;;;14.69;62.55;102627.56;4977692;28;20463;-86
2023/05/27 08:29:02;;;;;;;18.98;7.68;;;;;;;14.56;61.70;102601.16;4977493;28;20544;-86
2023/05/27 08:31:28;;;;;;;20.08;7.57;;;;;;;14.71;63.31;102609.97;4955613;28;20410;-86
2023/05/27 08:33:53;;;;;;;17.67;8.05;;;;;;;14.82;60.99;102612.59;4959529;28;20062;-86
2023/05/27 08:36:19;;;;;;;18.08;7.55;;;;;;;14.79;60.94;102602.06;4974450;28;20034;-83
2023/05/27 08:38:44;;;;;;;19.77;7.35;;;;;;;14.87;62.24;102602.94;4976042;28;20018;-86
2023/05/27 08:41:11;;;;;;;20.33;7.50;;;;;;;14.89;60.42;102594.13;4985962;28;20041;-89
2023/05/27 08:43:37;;;;;;;17.30;7.50;;;;;;;14.96;61.67;102604.69;4982747;28;20039;-87
2023/05/27 08:46:04;;;;;;;22.25;8.35;;;;;;;15.06;60.67;102594.06;4963996;28;20041;-85
2023/05/27 08:48:30;;;;;;;17.08;6.90;;;;;;;15.18;59.25;102587.00;4968138;28;20386;-85
2023/05/27 08:50:55;;;;;;;18.70;8.15;;;;;;;15.22;60.64;102581.72;4976739;28;20138;-89
2023/05/27 08:53:22;;;;;;;20.67;8.32;;;;;;;15.32;59.59;102581.69;4975079;28;20027;-84
2023/05/27 08:55:51;;;;;;;21.27;7.22;;;;;;;15.43;59.54;102585.19;4980894;28;20133;-84
2023/05/27 08:58:17;;;;;;;21.63;8.05;;;;;;;15.47;59.09;102581.59;4959277;28;20110;-85
2023/05/27 09:00:43;;;;;;;20.35;7.68;;;;;;;15.54;59.58;102583.38;4977151;28;20117;-83
2023/05/27 09:03:09;;;;;;;18.67;7.93;;;;;;;15.59;59.09;102578.91;4962319;28;20030;-85
2023/05/27 09:05:34;;;;;;;17.45;7.13;;;;;;;15.56;59.08;102578.94;4977912;28;20113;-90
2023/05/27 09:08:00;;;;;;;18.33;7.63;;;;;;;15.55;58.31;102569.25;4962623;28;20038;-83
2023/05/27 09:10:47;;;;;;;19.08;7.97;;;;;;;15.70;57.22;102568.31;4993466;28;20506;-85
2023/05/27 09:13:26;;;;;;;16.42;7.45;;;;;;;15.83;58.46;102558.56;4989819;28;20101;-86
2023/05/27 09:15:58;;;;;;;20.95;8.50;;;;;;;15.81;58.36;102565.63;4993274;28;20042;-87
2023/05/27 09:18:28;;;;;;;21.38;8.27;;;;;;;15.87;57.90;102560.28;4972779;28;20033;-88
2023/05/27 09:20:55;;;;;;;17.63;7.65;;;;;;;16.06;57.90;102560.16;4975160;28;20497;-87
2023/05/27 09:23:21;;;;;;;19.38;7.47;;;;;;;16.13;56.40;102551.28;4974669;28;20085;-85
2023/05/27 09:25:47;;;;;;;21.02;7.45;;;;;;;16.17;56.31;102533.66;4991550;28;20424;-84
2023/05/27 09:28:35;;;;;;;19.38;7.25;;;;;;;16.49;56.61;102554.50;4974854;28;20027;-88
2023/05/27 09:31:08;;;;;;;16.88;7.47;;;;;;;16.57;56.01;102551.81;4982114;28;20030;-85
2023/05/27 09:33:38;;;;;;;18.30;7.07;;;;;;;16.64;55.73;102542.91;4993865;28;20125;-86
2023/05/27 09:36:05;;;;;;;19.23;7.78;;;;;;;16.77;56.53;102538.38;4994501;28;20061;-84
2023/05/27 09:38:50;;;;;;;24.10;8.52;;;;;;;16.73;55.42;102545.47;4975100;28;20039;-86
2023/05/27 09:41:24;;;;;;;16.00;6.88;;;;;;;16.85;55.76;102531.25;4966084;28;20101;-87
2023/05/27 09:43:55;;;;;;;20.85;7.80;;;;;;;17.10;55.24;102542.44;4993288;28;20058;-85
2023/05/27 09:46:20;;;;;;;;;;;;;;;17.19;55.62;102538.78;4965784;28;20399;-85
2023/05/27 09:48:47;;;;;;;17.42;7.15;;;;;;;17.23;52.72;102537.00;4958671;28;19925;-89
2023/05/27 09:51:14;;;;;;;16.20;6.75;;;;;;;17.41;52.75;102530.56;4983610;28;20027;-85
2023/05/27 09:53:40;;;;;;;16.23;6.68;;;;;;;17.50;53.75;102525.16;4959915;28;20089;-84
2023/05/27 09:56:06;;;;;;;17.10;6.97;;;;;;;17.64;53.29;102519.63;4977270;28;20041;-85
2023/05/27 09:58:32;;;;;;;18.10;6.93;;;;;;;17.74;51.77;102512.44;4961129;28;20030;-84
2023/05/27 10:00:59;;;;;;;16.95;6.05;;;;;;;17.75;49.79;102520.34;4971374;28;20371;-84
2023/05/27 10:03:24;;;;;;;19.88;5.85;;;;;;;17.59;49.22;102514.41;4949102;28;20037;-82
2023/05/27 10:05:51;;;;;;;19.30;6.70;;;;;;;17.42;48.92;102514.66;4985634;28;20499;-81
2023/05/27 10:08:18;;;;;;;16.20;6.28;;;;;;;17.33;51.00;102512.13;4977149;28;20437;-86
2023/05/27 10:10:45;;;;;;;19.95;7.40;;;;;;;17.47;50.63;102509.31;4970993;28;20153;-83
2023/05/27 10:13:16;;;;;;;17.33;5.80;;;;;;;17.42;50.95;102509.34;4979096;28;20408;-84
2023/05/27 10:16:00;;;;;;;15.68;6.15;;;;;;;17.43;51.32;102507.59;4988032;28;20113;-84
2023/05/27 10:18:29;;;;;;;17.90;5.95;;;;;;;17.50;51.43;102506.59;4967313;28;20371;-83
2023/05/27 10:20:56;;;;;;;22.00;6.57;;;;;;;17.50;50.91;102490.72;4961009;28;20042;-85
2023/05/27 10:23:26;;;;;;;18.33;6.28;;;;;;;17.47;50.78;102501.34;4983671;28;20038;-84
2023/05/27 10:26:11;;;;;;;12.82;6.13;;;;;;;17.49;49.95;102499.53;4986643;28;20116;-86
2023/05/27 10:28:41;;;;;;;13.95;5.38;;;;;;;17.47;49.15;102499.56;4966990;28;20467;-85
2023/05/27 10:31:19;;;;;;;18.00;5.78;;;;;;;17.57;50.34;102495.03;4988181;28;20034;-84
2023/05/27 10:33:50;;;;;;;16.50;5.95;;;;;;;17.59;48.15;102489.69;4973977;28;20037;-84
2023/05/27 10:36:23;;;;;;;13.70;4.93;;;;;;;17.65;48.92;102487.81;4960077;28;20044;-87
2023/05/27 10:38:57;;;;;;;17.98;5.57;;;;;;;17.75;49.73;102477.06;4992447;28;20096;-86
2023/05/27 10:41:24;;;;;;;17.58;5.90;;;;;;;17.95;48.77;102477.66;4979769;28;20057;-84
2023/05/27 10:43:59;;;;;;;19.73;5.25;;;;;;;18.08;45.93;102475.66;4987309;28;20030;-83
2023/05/27 10:46:26;;;;;;;18.40;5.55;;;;;;;18.10;44.80;102479.19;4965989;28;20546;-83
2023/05/27 10:48:52;;;;;;;15.05;5.68;;;;;;;18.14;45.72;102480.00;4972019;28;20049;-83
2023/05/27 10:51:18;;;;;;;13.52;5.43;;;;;;;18.18;48.63;102463.13;4963861;28;20034;-85
2023/05/27 10:53:44;;;;;;;17.92;6.90;;;;;;;18.23;47.86;102458.63;4971679;28;20038;-85
2023/05/27 10:56:10;;;;;;;15.40;6.07;;;;;;;18.22;48.68;102467.47;4970348;28;20390;-85
2023/05/27 10:58:37;;;;;;;13.60;5.95;;;;;;;18.15;46.65;102452.56;4957380;28;20041;-81
2023/05/27 11:01:13;;;;;;;17.27;6.43;;;;;;;18.14;47.45;102462.28;4969643;28;20041;-85
2023/05/27 11:03:44;;;;;;;16.67;6.30;;;;;;;18.16;48.02;102457.84;4990160;28;20492;-82
2023/05/27 11:06:11;;;;;;;18.42;6.10;;;;;;;18.17;47.57;102450.75;4973625;28;20136;-83
2023/05/27 11:08:37;;;;;;;17.55;6.63;;;;;;;18.18;47.91;102450.72;4980364;28;20072;-79
2023/05/27 11:11:06;;;;;;;16.35;6.07;;;;;;;18.21;45.98;102454.25;4981458;28;20121;-79
2023/05/27 11:13:36;;;;;;;16.48;5.22;;;;;;;18.33;43.70;102441.63;4987104;28;20389;-85
2023/05/27 11:19:23;;;;;;;19.00;5.65;;;;;;;18.72;45.92;102424.03;5342723;23;20158;-70
2023/05/27 11:21:48;;;;;;;15.27;5.35;;;;;;;18.85;43.43;102431.72;4920364;28;20506;-71
2023/05/27 11:24:19;;;;;;;18.90;5.07;;;;;;;18.92;43.63;102424.56;4929040;29;20123;-72